createdAt,value
2019-05-17T00:00:47.456Z,11.12
2019-05-17T00:03:18.671Z,11.12
2019-05-17T00:05:48.048Z,11.10
2019-05-17T00:08:30.837Z,11.07
2019-05-17T00:10:48.337Z,11.16
2019-05-17T00:13:17.609Z,11.08
2019-05-17T00:15:47.447Z,11.05
2019-05-17T00:18:17.276Z,11.03
2019-05-17T00:20:47.657Z,11.06
2019-05-17T00:23:17.489Z,11.06
2019-05-17T00:25:48.425Z,11.08
2019-05-17T00:28:17.697Z,11.05
2019-05-17T00:30:47.080Z,11.08
2019-05-17T00:33:16.983Z,11.03
2019-05-17T00:35:46.996Z,10.93
2019-05-17T00:38:16.990Z,10.91
2019-05-17T00:40:47.049Z,10.89
2019-05-17T00:43:17.010Z,10.86
2019-05-17T00:45:46.924Z,10.85
2019-05-17T00:48:17.387Z,10.83
2019-05-17T00:50:53.340Z,10.85
2019-05-17T00:53:17.700Z,10.80
2019-05-17T00:55:48.518Z,10.89
2019-05-17T00:58:17.790Z,10.85
2019-05-17T01:00:47.944Z,10.89
2019-05-17T01:03:17.404Z,10.93
2019-05-17T01:05:47.361Z,10.84
2019-05-17T01:08:17.433Z,10.83
2019-05-17T01:10:47.375Z,10.78
2019-05-17T01:13:17.477Z,10.81
2019-05-17T01:15:47.541Z,10.81
2019-05-17T01:18:16.868Z,10.74
2019-05-17T01:20:47.424Z,10.73
2019-05-17T01:23:17.987Z,10.79
2019-05-17T01:25:48.156Z,10.85
2019-05-17T01:28:17.579Z,10.79
2019-05-17T01:30:46.851Z,10.80
2019-05-17T01:33:17.343Z,10.79
2019-05-17T01:35:46.779Z,10.79
2019-05-17T01:38:17.770Z,10.74
2019-05-17T01:40:47.272Z,10.76
2019-05-17T01:43:16.767Z,10.78
2019-05-17T01:45:48.001Z,10.74
2019-05-17T01:48:17.100Z,10.73
2019-05-17T01:50:46.582Z,10.72
2019-05-17T01:53:16.622Z,10.69
2019-05-17T01:55:46.667Z,10.70
2019-05-17T01:58:17.271Z,10.62
2019-05-17T02:00:46.691Z,10.59
2019-05-17T02:03:17.383Z,10.62
2019-05-17T02:05:47.352Z,10.58
2019-05-17T02:08:17.159Z,10.54
2019-05-17T02:10:47.673Z,10.57
2019-05-17T02:13:16.995Z,10.64
2019-05-17T02:15:46.973Z,10.68
2019-05-17T02:18:17.357Z,10.61
2019-05-17T02:20:46.806Z,10.74
2019-05-17T02:23:17.429Z,10.69
2019-05-17T02:25:47.933Z,10.62
2019-05-17T02:28:17.215Z,10.57
2019-05-17T02:30:46.601Z,10.62
2019-05-17T02:33:15.871Z,10.55
2019-05-17T02:35:45.259Z,10.54
2019-05-17T02:38:14.548Z,10.51
2019-05-17T02:40:43.848Z,10.55
2019-05-17T02:43:13.445Z,10.60
2019-05-17T02:45:43.581Z,10.53
2019-05-17T02:48:13.558Z,10.54
2019-05-17T02:50:47.780Z,10.52
2019-05-17T02:53:15.323Z,10.58
2019-05-17T02:55:44.615Z,10.57
2019-05-17T02:58:13.939Z,10.53
2019-05-17T03:00:44.789Z,10.53
2019-05-17T03:03:14.087Z,10.50
2019-05-17T03:05:43.693Z,10.53
2019-05-17T03:08:12.987Z,10.54
2019-05-17T03:10:43.226Z,10.48
2019-05-17T03:13:15.355Z,10.48
2019-05-17T03:15:43.737Z,10.47
2019-05-17T03:18:13.600Z,10.44
2019-05-17T03:20:43.420Z,10.41
2019-05-17T03:23:12.915Z,10.35
2019-05-17T03:25:44.081Z,10.32
2019-05-17T03:28:13.577Z,10.37
2019-05-17T03:30:46.786Z,10.34
2019-05-17T03:33:16.431Z,10.33
2019-05-17T03:35:47.858Z,10.42
2019-05-17T03:38:17.151Z,10.38
2019-05-17T03:41:07.473Z,10.32
2019-05-17T03:43:17.494Z,10.37
2019-05-17T03:45:46.925Z,10.32
2019-05-17T03:48:16.324Z,10.26
2019-05-17T03:50:45.604Z,10.32
2019-05-17T03:53:14.918Z,10.30
2019-05-17T03:55:44.192Z,10.25
2019-05-17T03:58:13.557Z,10.20
2019-05-17T04:00:43.047Z,10.28
2019-05-17T04:03:13.565Z,10.26
2019-05-17T04:05:43.296Z,10.28
2019-05-17T04:08:13.943Z,10.27
2019-05-17T04:10:43.606Z,10.30
2019-05-17T04:13:13.205Z,10.23
2019-05-17T04:15:43.354Z,10.26
2019-05-17T04:18:13.342Z,10.28
2019-05-17T04:20:43.778Z,10.25
2019-05-17T04:23:13.211Z,10.29
2019-05-17T04:25:43.506Z,10.19
2019-05-17T04:28:13.819Z,10.21
2019-05-17T04:30:43.590Z,10.22
2019-05-17T04:33:13.090Z,10.22
2019-05-17T04:35:43.244Z,10.23
2019-05-17T04:38:12.997Z,10.24
2019-05-17T04:40:43.144Z,10.18
2019-05-17T04:43:13.550Z,10.23
2019-05-17T04:45:43.297Z,10.21
2019-05-17T04:48:13.373Z,10.27
2019-05-17T04:50:43.096Z,10.22
2019-05-17T04:53:13.389Z,10.19
2019-05-17T04:55:43.345Z,10.20
2019-05-17T04:58:13.680Z,10.17
2019-05-17T05:00:43.272Z,10.16
2019-05-17T05:03:12.899Z,10.17
2019-05-17T05:05:42.930Z,10.23
2019-05-17T05:08:12.982Z,10.24
2019-05-17T05:10:44.189Z,10.36
2019-05-17T05:13:13.578Z,10.42
2019-05-17T05:15:44.593Z,10.45
2019-05-17T05:18:14.258Z,10.48
2019-05-17T05:20:44.069Z,10.42
2019-05-17T05:23:13.654Z,10.41
2019-05-17T05:25:43.456Z,10.46
2019-05-17T05:28:12.938Z,10.42
2019-05-17T05:30:43.728Z,10.56
2019-05-17T05:33:13.258Z,10.60
2019-05-17T05:35:42.903Z,10.56
2019-05-17T05:38:13.275Z,10.49
2019-05-17T05:40:43.829Z,10.39
2019-05-17T05:43:13.777Z,10.44
2019-05-17T05:45:43.077Z,10.50
2019-05-17T05:48:13.272Z,10.50
2019-05-17T05:50:43.952Z,10.48
2019-05-17T05:53:13.422Z,10.61
2019-05-17T05:55:43.319Z,10.57
2019-05-17T05:58:12.986Z,10.63
2019-05-17T06:00:42.942Z,10.61
2019-05-17T06:03:12.542Z,10.72
2019-05-17T06:05:42.562Z,10.65
2019-05-17T06:08:13.195Z,10.63
2019-05-17T06:10:43.026Z,10.72
2019-05-17T06:13:13.461Z,10.67
2019-05-17T06:15:43.198Z,10.74
2019-05-17T06:18:12.765Z,10.92
2019-05-17T06:20:42.224Z,10.77
2019-05-17T06:23:12.179Z,10.91
2019-05-17T06:25:43.449Z,11.03
2019-05-17T06:28:12.848Z,11.10
2019-05-17T06:30:43.114Z,11.11
2019-05-17T06:33:26.653Z,11.18
2019-05-17T06:35:43.614Z,11.10
2019-05-17T06:38:13.189Z,11.18
2019-05-17T06:40:42.461Z,11.14
2019-05-17T06:43:13.145Z,11.24
2019-05-17T06:45:42.654Z,11.35
2019-05-17T06:48:12.091Z,11.33
2019-05-17T06:50:42.824Z,11.48
2019-05-17T06:53:12.767Z,11.58
2019-05-17T06:55:42.611Z,11.61
2019-05-17T06:58:12.409Z,11.70
2019-05-17T07:00:41.858Z,12.02
2019-05-17T07:03:12.694Z,12.12
2019-05-17T07:05:46.347Z,12.27
2019-05-17T07:08:15.678Z,12.43
2019-05-17T07:10:44.966Z,12.29
2019-05-17T07:13:14.375Z,12.25
2019-05-17T07:15:47.814Z,12.27
2019-05-17T07:18:14.663Z,12.29
2019-05-17T07:20:43.953Z,12.28
2019-05-17T07:23:13.248Z,12.17
2019-05-17T07:25:42.557Z,12.01
2019-05-17T07:28:11.867Z,12.02
2019-05-17T07:30:41.193Z,12.27
2019-05-17T07:33:10.544Z,12.12
2019-05-17T07:35:40.069Z,12.01
2019-05-17T07:38:10.614Z,12.17
2019-05-17T07:40:40.250Z,12.24
2019-05-17T07:43:14.372Z,12.38
2019-05-17T07:45:41.129Z,12.43
2019-05-17T07:48:10.518Z,12.58
2019-05-17T07:50:40.116Z,12.81
2019-05-17T07:53:10.383Z,13.07
2019-05-17T07:55:40.187Z,12.91
2019-05-17T07:58:10.220Z,12.87
2019-05-17T08:00:40.318Z,12.75
2019-05-17T08:03:12.995Z,12.75
2019-05-17T08:05:40.827Z,12.67
2019-05-17T08:08:10.427Z,12.84
2019-05-17T08:10:41.289Z,13.12
2019-05-17T08:13:25.156Z,13.21
2019-05-17T08:15:41.698Z,13.38
2019-05-17T08:18:11.224Z,13.56
2019-05-17T08:20:40.675Z,13.31
2019-05-17T08:23:11.531Z,13.40
2019-05-17T08:25:52.143Z,13.36
2019-05-17T08:28:11.941Z,13.31
2019-05-17T08:30:41.475Z,13.51
2019-05-17T08:33:11.788Z,13.51
2019-05-17T08:35:41.116Z,13.44
2019-05-17T08:38:10.750Z,13.44
2019-05-17T08:40:40.727Z,13.36
2019-05-17T08:43:11.238Z,13.36
2019-05-17T08:45:41.049Z,13.47
2019-05-17T08:48:10.409Z,13.59
2019-05-17T08:50:40.538Z,13.56
2019-05-17T08:53:10.848Z,13.61
2019-05-17T08:55:41.246Z,13.35
2019-05-17T08:58:10.764Z,13.22
2019-05-17T09:00:41.159Z,13.23
2019-05-17T09:03:11.528Z,13.23
2019-05-17T09:05:41.770Z,13.30
2019-05-17T09:08:12.415Z,13.25
2019-05-17T09:10:41.841Z,13.14
2019-05-17T09:13:14.543Z,13.09
2019-05-17T09:15:42.946Z,13.16
2019-05-17T09:18:12.323Z,12.95
2019-05-17T09:20:41.613Z,12.94
2019-05-17T09:23:12.002Z,12.98
2019-05-17T09:25:41.307Z,13.04
2019-05-17T09:28:11.378Z,13.11
2019-05-17T09:30:40.855Z,13.14
2019-05-17T09:33:11.285Z,13.37
2019-05-17T09:35:41.200Z,13.54
2019-05-17T09:38:11.026Z,13.49
2019-05-17T09:40:40.545Z,13.54
2019-05-17T09:43:10.515Z,13.57
2019-05-17T09:45:40.736Z,13.82
2019-05-17T09:48:10.693Z,13.69
2019-05-17T09:50:40.280Z,13.40
2019-05-17T09:53:10.749Z,13.54
2019-05-17T09:55:40.533Z,13.54
2019-05-17T09:58:10.904Z,13.57
2019-05-17T10:00:40.235Z,13.54
2019-05-17T10:03:09.967Z,13.58
2019-05-17T10:05:40.569Z,14.05
2019-05-17T10:08:11.036Z,14.50
2019-05-17T10:10:40.559Z,14.57
2019-05-17T10:13:10.999Z,14.70
2019-05-17T10:15:41.007Z,14.49
2019-05-17T10:18:11.568Z,14.22
2019-05-17T10:20:40.876Z,14.01
2019-05-17T10:23:11.227Z,14.27
2019-05-17T10:25:40.585Z,14.59
2019-05-17T10:28:10.266Z,14.79
2019-05-17T10:30:40.119Z,14.99
2019-05-17T10:33:10.162Z,15.14
2019-05-17T10:35:40.573Z,14.99
2019-05-17T10:38:10.633Z,14.83
2019-05-17T10:40:41.145Z,14.61
2019-05-17T10:43:10.612Z,14.76
2019-05-17T10:45:40.401Z,14.48
2019-05-17T10:48:10.488Z,14.33
2019-05-17T10:50:40.724Z,14.45
2019-05-17T10:53:10.473Z,14.44
2019-05-17T10:55:40.250Z,14.48
2019-05-17T10:58:10.172Z,14.52
2019-05-17T11:00:41.474Z,14.60
2019-05-17T11:03:11.271Z,14.36
2019-05-17T11:05:40.602Z,14.43
2019-05-17T11:08:10.795Z,14.42
2019-05-17T11:10:40.315Z,14.56
2019-05-17T11:13:11.168Z,14.76
2019-05-17T11:15:41.541Z,14.78
2019-05-17T11:18:10.948Z,14.80
2019-05-17T11:20:40.254Z,14.77
2019-05-17T11:23:09.550Z,15.10
2019-05-17T11:25:44.922Z,15.19
2019-05-17T11:28:09.881Z,14.99
2019-05-17T11:30:39.195Z,14.89
2019-05-17T11:33:08.572Z,15.00
2019-05-17T11:35:37.889Z,14.84
2019-05-17T11:38:07.182Z,14.58
2019-05-17T11:40:36.628Z,14.40
2019-05-17T11:43:05.925Z,14.43
2019-05-17T11:45:35.248Z,14.42
2019-05-17T11:48:04.529Z,14.30
2019-05-17T11:50:33.826Z,14.20
2019-05-17T11:53:03.122Z,14.42
2019-05-17T11:55:32.441Z,14.58
2019-05-17T11:58:01.726Z,14.51
2019-05-17T12:00:31.541Z,14.43
2019-05-17T12:03:00.911Z,14.35
2019-05-17T12:05:30.409Z,14.32
2019-05-17T12:08:00.874Z,14.29
2019-05-17T12:10:31.475Z,14.24
2019-05-17T12:13:00.891Z,14.43
2019-05-17T12:15:44.492Z,14.47
2019-05-17T12:18:02.252Z,14.46
2019-05-17T12:20:31.576Z,14.38
2019-05-17T12:23:00.863Z,14.11
2019-05-17T12:25:30.170Z,14.08
2019-05-17T12:27:59.469Z,13.94
2019-05-17T12:30:28.875Z,13.88
2019-05-17T12:32:58.171Z,13.83
2019-05-17T12:35:27.489Z,13.87
2019-05-17T12:37:56.772Z,13.84
2019-05-17T12:40:27.649Z,13.87
2019-05-17T12:42:56.963Z,14.00
2019-05-17T12:45:26.284Z,14.09
2019-05-17T12:47:55.633Z,14.15
2019-05-17T12:50:24.935Z,14.16
2019-05-17T12:52:54.239Z,14.30
2019-05-17T12:55:23.559Z,14.46
2019-05-17T12:57:52.948Z,14.69
2019-05-17T13:00:22.792Z,14.92
2019-05-17T13:02:52.109Z,15.26
2019-05-17T13:05:22.156Z,15.09
2019-05-17T13:07:51.455Z,14.84
2019-05-17T13:10:20.838Z,14.51
2019-05-17T13:12:50.116Z,14.41
2019-05-17T13:15:19.504Z,14.43
2019-05-17T13:17:49.018Z,14.41
2019-05-17T13:20:18.515Z,14.18
2019-05-17T13:22:48.560Z,13.98
2019-05-17T13:25:18.014Z,13.89
2019-05-17T13:27:47.335Z,14.00
2019-05-17T13:30:17.086Z,13.96
2019-05-17T13:32:46.391Z,14.06
2019-05-17T13:35:16.913Z,14.14
2019-05-17T13:37:46.312Z,14.20
2019-05-17T13:40:15.888Z,14.35
2019-05-17T13:42:45.224Z,14.51
2019-05-17T13:45:14.879Z,14.89
2019-05-17T13:47:44.258Z,15.08
2019-05-17T13:50:14.869Z,15.28
2019-05-17T13:52:44.202Z,15.20
2019-05-17T13:55:14.814Z,14.93
2019-05-17T13:57:44.128Z,14.70
2019-05-17T14:00:13.759Z,14.54
2019-05-17T14:02:43.127Z,14.49
2019-05-17T14:05:12.574Z,14.25
2019-05-17T14:07:41.957Z,14.20
2019-05-17T14:10:26.119Z,14.11
2019-05-17T14:12:45.041Z,14.23
2019-05-17T14:15:14.499Z,14.33
2019-05-17T14:17:43.777Z,14.39
2019-05-17T14:20:13.167Z,14.48
2019-05-17T14:22:42.450Z,14.49
2019-05-17T14:25:13.359Z,14.40
2019-05-17T14:27:42.664Z,14.38
2019-05-17T14:30:12.295Z,14.34
2019-05-17T14:32:41.691Z,14.13
2019-05-17T14:35:11.296Z,14.12
2019-05-17T14:37:40.726Z,14.15
2019-05-17T14:40:10.117Z,14.07
2019-05-17T14:42:39.425Z,14.01
2019-05-17T14:45:08.950Z,13.93
2019-05-17T14:47:38.393Z,13.81
2019-05-17T14:50:07.866Z,13.51
2019-05-17T14:52:37.155Z,13.39
2019-05-17T14:55:07.907Z,13.38
2019-05-17T14:57:37.255Z,13.42
2019-05-17T15:00:07.645Z,13.30
2019-05-17T15:02:36.910Z,13.26
2019-05-17T15:05:06.881Z,13.23
2019-05-17T15:07:36.248Z,13.26
2019-05-17T15:10:07.445Z,13.19
2019-05-17T15:12:36.727Z,13.17
2019-05-17T15:15:07.687Z,13.08
2019-05-17T15:17:37.066Z,12.99
2019-05-17T15:20:06.849Z,12.95
2019-05-17T15:22:36.207Z,12.90
2019-05-17T15:25:05.858Z,12.87
2019-05-17T15:27:35.154Z,12.83
2019-05-17T15:30:06.343Z,12.91
2019-05-17T15:32:35.627Z,12.88
2019-05-17T15:35:06.684Z,12.84
2019-05-17T15:37:36.033Z,12.89
2019-05-17T15:40:06.814Z,12.83
2019-05-17T15:42:44.030Z,12.87
2019-05-17T15:45:07.454Z,12.79
2019-05-17T15:47:36.734Z,12.71
2019-05-17T15:50:07.172Z,12.71
2019-05-17T15:52:36.535Z,12.78
2019-05-17T15:55:08.783Z,12.76
2019-05-17T15:57:38.085Z,12.80
2019-05-17T16:00:07.889Z,12.83
2019-05-17T16:02:37.242Z,12.84
2019-05-17T16:05:06.805Z,12.93
2019-05-17T16:07:36.090Z,12.97
2019-05-17T16:10:08.855Z,13.03
2019-05-17T16:12:39.315Z,13.00
2019-05-17T16:15:09.029Z,12.96
2019-05-17T16:17:38.315Z,12.95
2019-05-17T16:20:16.546Z,12.92
2019-05-17T16:22:42.107Z,12.96
2019-05-17T16:25:11.630Z,12.91
2019-05-17T16:27:40.916Z,12.89
2019-05-17T16:30:10.594Z,12.89
2019-05-17T16:32:39.889Z,12.85
2019-05-17T16:35:11.023Z,12.85
2019-05-17T16:37:40.344Z,12.88
2019-05-17T16:40:10.115Z,12.87
2019-05-17T16:42:39.416Z,12.76
2019-05-17T16:45:09.166Z,12.79
2019-05-17T16:47:38.467Z,12.74
2019-05-17T16:50:08.354Z,12.67
2019-05-17T16:52:37.642Z,12.64
2019-05-17T16:55:08.204Z,12.65
2019-05-17T16:57:37.757Z,12.57
2019-05-17T17:00:27.930Z,12.59
2019-05-17T17:02:57.384Z,12.54
2019-05-17T17:05:26.688Z,12.54
2019-05-17T17:07:56.242Z,12.49
2019-05-17T17:10:25.621Z,12.56
2019-05-17T17:12:54.941Z,12.58
2019-05-17T17:15:24.305Z,12.72
2019-05-17T17:17:53.675Z,12.72
2019-05-17T17:20:23.445Z,12.66
2019-05-17T17:22:52.977Z,12.67
2019-05-17T17:25:23.557Z,12.70
2019-05-17T17:27:52.842Z,12.68
2019-05-17T17:30:22.221Z,12.64
2019-05-17T17:32:51.537Z,12.66
2019-05-17T17:35:20.834Z,12.64
2019-05-17T17:37:50.181Z,12.66
2019-05-17T17:40:21.132Z,12.61
2019-05-17T17:42:51.188Z,12.64
2019-05-17T17:45:23.405Z,12.61
2019-05-17T17:47:52.714Z,12.61
2019-05-17T17:50:22.152Z,12.63
2019-05-17T17:52:52.060Z,12.64
2019-05-17T17:55:21.551Z,12.55
2019-05-17T17:57:50.996Z,12.55
2019-05-17T18:00:21.122Z,12.55
2019-05-17T18:02:51.616Z,12.52
2019-05-17T18:05:20.987Z,12.51
2019-05-17T18:07:50.540Z,12.47
2019-05-17T18:10:33.551Z,12.41
2019-05-17T18:13:02.140Z,12.43
2019-05-17T18:15:34.469Z,12.39
2019-05-17T18:18:03.875Z,12.37
2019-05-17T18:20:34.116Z,12.35
2019-05-17T18:23:03.420Z,12.34
2019-05-17T18:25:32.756Z,12.30
2019-05-17T18:28:02.083Z,12.29
2019-05-17T18:30:31.445Z,12.29
2019-05-17T18:33:00.793Z,12.25
2019-05-17T18:35:30.115Z,12.22
2019-05-17T18:37:59.423Z,12.23
2019-05-17T18:40:28.718Z,12.18
2019-05-17T18:42:58.039Z,12.18
2019-05-17T18:45:27.415Z,12.19
2019-05-17T18:47:58.637Z,12.19
2019-05-17T18:50:28.358Z,12.22
2019-05-17T18:52:57.846Z,12.16
2019-05-17T18:55:27.127Z,12.16
2019-05-17T18:57:56.532Z,12.13
2019-05-17T19:00:25.934Z,12.13
2019-05-17T19:02:55.263Z,12.12
2019-05-17T19:05:24.589Z,12.10
2019-05-17T19:07:55.024Z,12.04
2019-05-17T19:10:24.662Z,12.00
2019-05-17T19:12:53.976Z,11.95
2019-05-17T19:15:23.471Z,11.98
2019-05-17T19:17:52.810Z,11.97
2019-05-17T19:20:22.322Z,11.99
2019-05-17T19:22:51.765Z,12.00
2019-05-17T19:25:21.325Z,11.97
2019-05-17T19:27:50.691Z,11.92
2019-05-17T19:30:20.166Z,11.89
2019-05-17T19:32:49.456Z,11.86
2019-05-17T19:35:18.961Z,11.87
2019-05-17T19:37:48.261Z,11.84
2019-05-17T19:40:17.639Z,11.82
2019-05-17T19:42:46.944Z,11.85
2019-05-17T19:45:16.847Z,11.81
2019-05-17T19:47:46.189Z,11.80
2019-05-17T19:50:15.761Z,11.78
2019-05-17T19:52:45.086Z,11.78
2019-05-17T19:55:15.710Z,11.74
2019-05-17T19:57:45.037Z,11.71
2019-05-17T20:00:15.357Z,11.68
2019-05-17T20:02:45.100Z,11.67
2019-05-17T20:05:14.623Z,11.67
2019-05-17T20:07:43.968Z,11.63
2019-05-17T20:10:13.488Z,11.56
2019-05-17T20:12:42.865Z,11.54
2019-05-17T20:15:17.938Z,11.49
2019-05-17T20:17:43.763Z,11.49
2019-05-17T20:20:13.557Z,11.48
2019-05-17T20:22:42.878Z,11.45
2019-05-17T20:25:12.720Z,11.42
2019-05-17T20:27:42.026Z,11.42
2019-05-17T20:30:12.056Z,11.34
2019-05-17T20:32:41.356Z,11.29
2019-05-17T20:35:10.913Z,11.22
2019-05-17T20:37:40.286Z,11.15
2019-05-17T20:40:10.130Z,11.09
2019-05-17T20:42:39.728Z,11.03
2019-05-17T20:45:09.949Z,10.94
2019-05-17T20:47:39.335Z,10.88
2019-05-17T20:50:09.367Z,10.85
2019-05-17T20:52:38.730Z,10.86
2019-05-17T20:55:08.276Z,10.88
2019-05-17T20:57:37.606Z,10.93
2019-05-17T21:00:08.750Z,10.98
2019-05-17T21:02:38.163Z,11.00
2019-05-17T21:05:07.704Z,10.98
2019-05-17T21:07:37.058Z,11.05
2019-05-17T21:10:06.524Z,11.06
2019-05-17T21:12:35.835Z,11.04
2019-05-17T21:15:06.848Z,11.08
2019-05-17T21:17:36.132Z,11.03
2019-05-17T21:20:06.784Z,11.01
2019-05-17T21:22:36.241Z,10.98
2019-05-17T21:25:06.381Z,10.91
2019-05-17T21:27:35.752Z,10.90
2019-05-17T21:30:06.905Z,10.84
2019-05-17T21:32:36.252Z,10.78
2019-05-17T21:35:05.907Z,10.76
2019-05-17T21:37:35.800Z,10.73
2019-05-17T21:40:10.687Z,10.63
2019-05-17T21:42:39.967Z,10.62
2019-05-17T21:45:10.440Z,10.63
2019-05-17T21:47:39.733Z,10.63
2019-05-17T21:50:10.551Z,10.57
2019-05-17T21:52:39.834Z,10.52
2019-05-17T21:55:09.524Z,10.49
2019-05-17T21:57:38.807Z,10.44
2019-05-17T22:00:10.918Z,10.40
2019-05-17T22:02:41.814Z,10.36
2019-05-17T22:05:11.473Z,10.32
2019-05-17T22:07:41.853Z,10.26
2019-05-17T22:10:11.433Z,10.24
2019-05-17T22:12:40.819Z,10.21
2019-05-17T22:15:10.292Z,10.17
2019-05-17T22:17:39.595Z,10.13
2019-05-17T22:20:08.946Z,10.08
2019-05-17T22:22:38.257Z,10.06
2019-05-17T22:25:07.729Z,10.00
2019-05-17T22:27:37.064Z,10.01
2019-05-17T22:30:07.321Z,9.94
2019-05-17T22:32:37.599Z,9.91
2019-05-17T22:35:07.059Z,9.90
2019-05-17T22:37:36.358Z,9.89
2019-05-17T22:40:08.881Z,9.85
2019-05-17T22:42:39.513Z,9.83
2019-05-17T22:45:09.478Z,9.82
2019-05-17T22:47:38.773Z,9.79
2019-05-17T22:50:08.482Z,9.74
2019-05-17T22:52:37.809Z,9.63
2019-05-17T22:55:07.498Z,9.57
2019-05-17T22:57:36.821Z,9.52
2019-05-17T23:00:08.004Z,9.49
2019-05-17T23:02:38.206Z,9.44
2019-05-17T23:05:07.414Z,9.41
2019-05-17T23:07:36.721Z,9.36
2019-05-17T23:10:07.651Z,9.32
2019-05-17T23:12:36.929Z,9.31
2019-05-17T23:15:08.026Z,9.26
2019-05-17T23:17:37.389Z,9.23
2019-05-17T23:20:07.253Z,9.12
2019-05-17T23:22:36.533Z,9.00
2019-05-17T23:25:08.730Z,8.84
2019-05-17T23:27:38.009Z,8.83
2019-05-17T23:30:07.586Z,8.85
2019-05-17T23:32:36.855Z,8.85
2019-05-17T23:35:07.320Z,8.80
2019-05-17T23:37:36.575Z,8.77
2019-05-17T23:40:06.759Z,8.74
2019-05-17T23:42:36.030Z,8.71
2019-05-17T23:45:08.453Z,8.70
2019-05-17T23:47:37.735Z,8.69
2019-05-17T23:50:08.879Z,8.65
2019-05-17T23:52:38.150Z,8.63
2019-05-17T23:55:08.489Z,8.56
2019-05-17T23:57:37.769Z,8.55
